Terminal Aerodrome Forecast
Issued by NWS Lake Charles, LA

Home | Current Version | Previous Version | Text Only | Print | Product List | Glossary On
Versions: 1 2 3 4 5 6 7 8 9 10 11 12 13 14 15
379
FTUS44 KLCH 280822 AAA
TAFARA
TAF AMD
KARA 280822Z 2808/2906 VRB05KT P6SM SKC
      TEMPO 2808/2812 1SM BR
     FM281500 24008KT P6SM SCT040=

USA.gov is the U.S. government's official web portal to all federal, state and local government web resources and services.